This is the latest recevied weather packets stored in our database for station/object EA1IRT-1. If no packets are shown the sender has not sent any weather packets the latest 10 day(s).
| Time | Temp. | Humidity | Pressure | Rain* | Wind** | Luminosity | Snow |
|---|---|---|---|---|---|---|---|
| 1778072168 | 20.56° C | 54% | 1015.1 hPa | - | - | - | - |
| 1778071265 | 21.11° C | 55% | 1015.1 hPa | - | - | - | - |
| 1778070365 | 20.56° C | 55% | 1015.2 hPa | - | - | - | - |
| 1778069470 | 21.11° C | 54% | 1015.3 hPa | - | - | - | - |
| 1778068563 | 20.56° C | 55% | 1015.3 hPa | - | - | - | - |
| 1778067663 | 20.56° C | 55% | 1015.4 hPa | - | - | - | - |
| 1778066763 | 20° C | 58% | 1015.6 hPa | - | - | - | - |
| 1778065863 | 18.33° C | 59% | 1015.7 hPa | - | - | - | - |
| 1778064963 | 18.33° C | 61% | 1015.7 hPa | - | - | - | - |
| 1778064063 | 18.33° C | 63% | 1015.7 hPa | - | - | - | - |
| 1778063163 | 20° C | 59% | 1015.5 hPa | - | - | - | - |
| 1778062263 | 19.44° C | 59% | 1015.5 hPa | - | - | - | - |
| 1778061362 | 18.33° C | 64% | 1015.6 hPa | - | - | - | - |
| 1778060462 | 17.78° C | 63% | 1015.6 hPa | - | - | - | - |
| 1778059562 | 17.78° C | 63% | 1015.6 hPa | - | - | - | - |
| 1778058669 | 17.22° C | 72% | 1015.6 hPa | - | - | - | - |
| 1778057762 | 16.11° C | 72% | 1015.6 hPa | - | - | - | - |
| 1778056862 | 16.11° C | 73% | 1015.5 hPa | - | - | - | - |
| 1778055962 | 15.56° C | 75% | 1015.7 hPa | - | - | - | - |
| 1778055062 | 16.11° C | 75% | 1015.6 hPa | - | - | - | - |
| 1778054162 | 16.11° C | 74% | 1015.6 hPa | - | - | - | - |
| 1778053262 | 16.67° C | 74% | 1015.4 hPa | - | - | - | - |
| 1778052362 | 15.56° C | 77% | 1015.5 hPa | - | - | - | - |
| 1778051462 | 14.44° C | 82% | 1015.5 hPa | - | - | - | - |
| 1778050561 | 12.78° C | 88% | 1015.6 hPa | - | - | - | - |
* Rain since midnight (hover to see other rain measurements)
** Current wind speed in m/s (hover to see current wind gust speed)